sensor_id;sensor_type;location;lat;lon;timestamp;P1;durP1;ratioP1;P2;durP2;ratioP2
44987;SDS011;35735;52.226;21.254;2023-01-28T00:02:40;45.20;;;24.98;;
44987;SDS011;35735;52.226;21.254;2023-01-28T00:07:41;44.45;;;24.83;;
44987;SDS011;35735;52.226;21.254;2023-01-28T00:12:41;47.35;;;25.23;;
44987;SDS011;35735;52.226;21.254;2023-01-28T00:17:42;45.20;;;25.33;;
44987;SDS011;35735;52.226;21.254;2023-01-28T00:22:46;51.08;;;25.67;;
44987;SDS011;35735;52.226;21.254;2023-01-28T00:27:48;44.65;;;24.80;;
44987;SDS011;35735;52.226;21.254;2023-01-28T00:32:49;45.88;;;25.45;;
44987;SDS011;35735;52.226;21.254;2023-01-28T00:37:50;42.78;;;25.58;;
44987;SDS011;35735;52.226;21.254;2023-01-28T00:42:50;45.28;;;24.65;;
44987;SDS011;35735;52.226;21.254;2023-01-28T00:47:51;42.50;;;24.02;;
44987;SDS011;35735;52.226;21.254;2023-01-28T00:52:51;40.65;;;22.83;;
44987;SDS011;35735;52.226;21.254;2023-01-28T00:57:52;41.83;;;23.10;;
44987;SDS011;35735;52.226;21.254;2023-01-28T01:02:53;43.33;;;23.23;;
44987;SDS011;35735;52.226;21.254;2023-01-28T01:07:54;44.00;;;24.37;;
44987;SDS011;35735;52.226;21.254;2023-01-28T01:12:54;44.03;;;23.05;;
44987;SDS011;35735;52.226;21.254;2023-01-28T01:17:56;42.40;;;23.05;;
44987;SDS011;35735;52.226;21.254;2023-01-28T01:22:56;41.55;;;23.60;;
44987;SDS011;35735;52.226;21.254;2023-01-28T01:27:57;39.83;;;22.92;;
44987;SDS011;35735;52.226;21.254;2023-01-28T01:32:57;43.97;;;24.20;;
44987;SDS011;35735;52.226;21.254;2023-01-28T01:37:58;39.97;;;23.02;;
44987;SDS011;35735;52.226;21.254;2023-01-28T01:42:59;44.58;;;24.63;;
44987;SDS011;35735;52.226;21.254;2023-01-28T01:48:03;40.85;;;23.10;;
44987;SDS011;35735;52.226;21.254;2023-01-28T01:53:13;46.13;;;24.23;;
44987;SDS011;35735;52.226;21.254;2023-01-28T01:58:20;39.72;;;22.92;;
44987;SDS011;35735;52.226;21.254;2023-01-28T02:14:51;44.28;;;24.35;;
44987;SDS011;35735;52.226;21.254;2023-01-28T02:20:02;45.92;;;24.42;;
44987;SDS011;35735;52.226;21.254;2023-01-28T02:41:54;44.42;;;24.35;;
44987;SDS011;35735;52.226;21.254;2023-01-28T02:47:01;44.97;;;23.98;;
44987;SDS011;35735;52.226;21.254;2023-01-28T02:52:24;43.87;;;23.65;;
44987;SDS011;35735;52.226;21.254;2023-01-28T03:03:07;38.58;;;21.73;;
44987;SDS011;35735;52.226;21.254;2023-01-28T03:08:18;39.50;;;21.87;;
44987;SDS011;35735;52.226;21.254;2023-01-28T03:13:19;38.83;;;21.95;;
44987;SDS011;35735;52.226;21.254;2023-01-28T03:18:23;38.90;;;21.73;;
44987;SDS011;35735;52.226;21.254;2023-01-28T03:23:31;37.90;;;22.30;;
44987;SDS011;35735;52.226;21.254;2023-01-28T03:28:57;47.15;;;25.45;;
44987;SDS011;35735;52.226;21.254;2023-01-28T03:34:06;37.20;;;22.27;;
44987;SDS011;35735;52.226;21.254;2023-01-28T03:39:10;36.55;;;22.17;;
44987;SDS011;35735;52.226;21.254;2023-01-28T03:44:10;35.95;;;20.77;;
44987;SDS011;35735;52.226;21.254;2023-01-28T03:49:11;31.02;;;19.52;;
44987;SDS011;35735;52.226;21.254;2023-01-28T03:54:11;33.17;;;19.62;;
44987;SDS011;35735;52.226;21.254;2023-01-28T03:59:12;31.12;;;19.75;;
44987;SDS011;35735;52.226;21.254;2023-01-28T04:04:13;27.83;;;18.40;;
44987;SDS011;35735;52.226;21.254;2023-01-28T04:09:13;29.50;;;18.95;;
44987;SDS011;35735;52.226;21.254;2023-01-28T04:14:14;29.40;;;18.58;;
44987;SDS011;35735;52.226;21.254;2023-01-28T04:19:14;27.10;;;18.33;;
44987;SDS011;35735;52.226;21.254;2023-01-28T04:24:15;26.17;;;16.60;;
44987;SDS011;35735;52.226;21.254;2023-01-28T04:29:16;26.25;;;16.48;;
44987;SDS011;35735;52.226;21.254;2023-01-28T04:34:16;24.63;;;16.17;;
44987;SDS011;35735;52.226;21.254;2023-01-28T04:39:17;26.33;;;16.60;;
44987;SDS011;35735;52.226;21.254;2023-01-28T04:44:17;24.17;;;15.52;;
44987;SDS011;35735;52.226;21.254;2023-01-28T04:49:18;24.17;;;16.85;;
44987;SDS011;35735;52.226;21.254;2023-01-28T04:54:18;31.87;;;19.98;;
44987;SDS011;35735;52.226;21.254;2023-01-28T04:59:19;25.58;;;16.45;;
44987;SDS011;35735;52.226;21.254;2023-01-28T05:04:20;24.37;;;15.43;;
44987;SDS011;35735;52.226;21.254;2023-01-28T05:09:20;28.77;;;16.92;;
44987;SDS011;35735;52.226;21.254;2023-01-28T05:14:23;25.55;;;16.77;;
44987;SDS011;35735;52.226;21.254;2023-01-28T05:19:24;24.20;;;16.30;;
44987;SDS011;35735;52.226;21.254;2023-01-28T05:24:24;22.52;;;14.73;;
44987;SDS011;35735;52.226;21.254;2023-01-28T05:29:25;24.98;;;16.00;;
44987;SDS011;35735;52.226;21.254;2023-01-28T05:34:25;23.00;;;15.20;;
44987;SDS011;35735;52.226;21.254;2023-01-28T05:39:26;22.85;;;14.90;;
44987;SDS011;35735;52.226;21.254;2023-01-28T05:44:26;22.85;;;15.90;;
44987;SDS011;35735;52.226;21.254;2023-01-28T05:49:27;27.15;;;17.95;;
44987;SDS011;35735;52.226;21.254;2023-01-28T05:54:27;25.98;;;18.10;;
44987;SDS011;35735;52.226;21.254;2023-01-28T05:59:28;25.83;;;18.08;;
44987;SDS011;35735;52.226;21.254;2023-01-28T06:04:29;27.17;;;17.08;;
44987;SDS011;35735;52.226;21.254;2023-01-28T06:09:29;26.62;;;15.45;;
44987;SDS011;35735;52.226;21.254;2023-01-28T06:14:30;26.80;;;17.02;;
44987;SDS011;35735;52.226;21.254;2023-01-28T06:19:30;26.87;;;17.10;;
44987;SDS011;35735;52.226;21.254;2023-01-28T06:24:31;43.87;;;24.70;;
44987;SDS011;35735;52.226;21.254;2023-01-28T06:29:31;52.72;;;26.62;;
44987;SDS011;35735;52.226;21.254;2023-01-28T06:34:32;60.75;;;28.50;;
44987;SDS011;35735;52.226;21.254;2023-01-28T06:39:32;68.85;;;32.10;;
44987;SDS011;35735;52.226;21.254;2023-01-28T06:44:33;58.58;;;30.27;;
44987;SDS011;35735;52.226;21.254;2023-01-28T06:49:34;54.60;;;28.45;;
44987;SDS011;35735;52.226;21.254;2023-01-28T06:54:34;65.35;;;31.25;;
44987;SDS011;35735;52.226;21.254;2023-01-28T06:59:35;61.80;;;30.67;;
44987;SDS011;35735;52.226;21.254;2023-01-28T07:04:35;46.08;;;23.65;;
44987;SDS011;35735;52.226;21.254;2023-01-28T07:09:36;44.25;;;22.13;;
44987;SDS011;35735;52.226;21.254;2023-01-28T07:14:36;45.67;;;22.35;;
44987;SDS011;35735;52.226;21.254;2023-01-28T07:19:37;39.00;;;20.75;;
44987;SDS011;35735;52.226;21.254;2023-01-28T07:24:37;45.10;;;22.40;;
44987;SDS011;35735;52.226;21.254;2023-01-28T07:29:38;46.00;;;22.27;;
44987;SDS011;35735;52.226;21.254;2023-01-28T07:34:38;37.63;;;20.92;;
44987;SDS011;35735;52.226;21.254;2023-01-28T07:39:39;43.33;;;22.52;;
44987;SDS011;35735;52.226;21.254;2023-01-28T07:44:39;43.40;;;23.77;;
44987;SDS011;35735;52.226;21.254;2023-01-28T07:49:40;58.92;;;31.40;;
44987;SDS011;35735;52.226;21.254;2023-01-28T07:54:41;54.60;;;27.77;;
44987;SDS011;35735;52.226;21.254;2023-01-28T07:59:41;37.45;;;20.90;;
44987;SDS011;35735;52.226;21.254;2023-01-28T08:04:42;44.25;;;24.77;;
44987;SDS011;35735;52.226;21.254;2023-01-28T08:09:42;36.05;;;20.48;;
44987;SDS011;35735;52.226;21.254;2023-01-28T08:14:43;50.78;;;26.42;;
44987;SDS011;35735;52.226;21.254;2023-01-28T08:19:43;45.83;;;24.25;;
44987;SDS011;35735;52.226;21.254;2023-01-28T08:24:44;37.83;;;20.40;;
44987;SDS011;35735;52.226;21.254;2023-01-28T08:29:47;47.92;;;23.62;;
44987;SDS011;35735;52.226;21.254;2023-01-28T08:34:48;44.28;;;23.20;;
44987;SDS011;35735;52.226;21.254;2023-01-28T08:39:48;29.25;;;16.87;;
44987;SDS011;35735;52.226;21.254;2023-01-28T08:44:49;37.38;;;20.55;;
44987;SDS011;35735;52.226;21.254;2023-01-28T08:51:05;28.45;;;16.58;;
44987;SDS011;35735;52.226;21.254;2023-01-28T08:56:06;60.00;;;33.28;;
44987;SDS011;35735;52.226;21.254;2023-01-28T09:01:07;43.35;;;24.83;;
44987;SDS011;35735;52.226;21.254;2023-01-28T09:06:07;38.20;;;22.80;;
44987;SDS011;35735;52.226;21.254;2023-01-28T09:11:08;29.67;;;18.08;;
44987;SDS011;35735;52.226;21.254;2023-01-28T09:16:11;30.05;;;18.85;;
44987;SDS011;35735;52.226;21.254;2023-01-28T09:21:11;37.30;;;23.10;;
44987;SDS011;35735;52.226;21.254;2023-01-28T09:26:12;40.03;;;24.08;;
44987;SDS011;35735;52.226;21.254;2023-01-28T09:31:13;46.70;;;27.73;;
44987;SDS011;35735;52.226;21.254;2023-01-28T09:36:16;30.65;;;19.52;;
44987;SDS011;35735;52.226;21.254;2023-01-28T09:41:23;30.50;;;19.02;;
44987;SDS011;35735;52.226;21.254;2023-01-28T09:46:30;28.12;;;18.80;;
44987;SDS011;35735;52.226;21.254;2023-01-28T09:51:35;26.85;;;16.92;;
44987;SDS011;35735;52.226;21.254;2023-01-28T09:56:42;25.30;;;16.20;;
44987;SDS011;35735;52.226;21.254;2023-01-28T10:01:49;27.05;;;17.70;;
44987;SDS011;35735;52.226;21.254;2023-01-28T10:07:13;30.45;;;18.85;;
44987;SDS011;35735;52.226;21.254;2023-01-28T10:18:36;23.38;;;16.65;;
44987;SDS011;35735;52.226;21.254;2023-01-28T10:29:18;28.40;;;17.65;;
44987;SDS011;35735;52.226;21.254;2023-01-28T10:34:22;26.00;;;16.73;;
44987;SDS011;35735;52.226;21.254;2023-01-28T10:39:23;23.08;;;16.75;;
44987;SDS011;35735;52.226;21.254;2023-01-28T10:44:28;21.42;;;15.93;;
44987;SDS011;35735;52.226;21.254;2023-01-28T10:49:34;25.92;;;18.67;;
44987;SDS011;35735;52.226;21.254;2023-01-28T10:54:47;27.13;;;19.52;;
44987;SDS011;35735;52.226;21.254;2023-01-28T11:00:21;20.85;;;15.73;;
44987;SDS011;35735;52.226;21.254;2023-01-28T11:05:26;23.52;;;16.77;;
44987;SDS011;35735;52.226;21.254;2023-01-28T11:10:30;20.95;;;15.25;;
44987;SDS011;35735;52.226;21.254;2023-01-28T11:15:33;19.58;;;15.27;;
44987;SDS011;35735;52.226;21.254;2023-01-28T11:20:36;19.90;;;14.32;;
44987;SDS011;35735;52.226;21.254;2023-01-28T11:25:40;19.80;;;14.93;;
44987;SDS011;35735;52.226;21.254;2023-01-28T11:30:41;22.48;;;15.77;;
44987;SDS011;35735;52.226;21.254;2023-01-28T11:40:57;19.67;;;13.57;;
44987;SDS011;35735;52.226;21.254;2023-01-28T11:57:42;22.42;;;13.77;;
44987;SDS011;35735;52.226;21.254;2023-01-28T12:10:08;30.42;;;19.60;;
44987;SDS011;35735;52.226;21.254;2023-01-28T12:20:41;19.62;;;15.05;;
44987;SDS011;35735;52.226;21.254;2023-01-28T12:26:14;18.05;;;14.65;;
44987;SDS011;35735;52.226;21.254;2023-01-28T12:37:22;21.45;;;14.63;;
44987;SDS011;35735;52.226;21.254;2023-01-28T12:42:47;23.73;;;16.42;;
44987;SDS011;35735;52.226;21.254;2023-01-28T12:47:55;23.48;;;16.55;;
44987;SDS011;35735;52.226;21.254;2023-01-28T12:58:50;26.12;;;18.25;;
44987;SDS011;35735;52.226;21.254;2023-01-28T13:09:36;23.85;;;17.48;;
44987;SDS011;35735;52.226;21.254;2023-01-28T13:14:46;27.58;;;19.08;;
44987;SDS011;35735;52.226;21.254;2023-01-28T13:19:48;28.80;;;21.10;;
44987;SDS011;35735;52.226;21.254;2023-01-28T13:24:49;35.70;;;27.55;;
44987;SDS011;35735;52.226;21.254;2023-01-28T13:29:59;30.77;;;21.50;;
44987;SDS011;35735;52.226;21.254;2023-01-28T13:35:33;27.58;;;18.80;;
44987;SDS011;35735;52.226;21.254;2023-01-28T13:40:37;31.17;;;23.95;;
44987;SDS011;35735;52.226;21.254;2023-01-28T13:45:40;25.98;;;19.45;;
44987;SDS011;35735;52.226;21.254;2023-01-28T13:50:41;28.38;;;17.95;;
44987;SDS011;35735;52.226;21.254;2023-01-28T13:55:43;35.58;;;25.42;;
44987;SDS011;35735;52.226;21.254;2023-01-28T14:06:34;30.25;;;19.17;;
44987;SDS011;35735;52.226;21.254;2023-01-28T14:17:26;30.80;;;20.50;;
44987;SDS011;35735;52.226;21.254;2023-01-28T14:22:41;33.45;;;22.35;;
44987;SDS011;35735;52.226;21.254;2023-01-28T14:27:43;26.92;;;18.55;;
44987;SDS011;35735;52.226;21.254;2023-01-28T14:32:51;27.45;;;19.70;;
44987;SDS011;35735;52.226;21.254;2023-01-28T14:37:53;26.95;;;19.70;;
44987;SDS011;35735;52.226;21.254;2023-01-28T14:42:54;28.38;;;20.52;;
44987;SDS011;35735;52.226;21.254;2023-01-28T14:59:40;26.30;;;18.55;;
44987;SDS011;35735;52.226;21.254;2023-01-28T15:04:54;26.52;;;18.33;;
44987;SDS011;35735;52.226;21.254;2023-01-28T15:10:35;24.25;;;17.85;;
44987;SDS011;35735;52.226;21.254;2023-01-28T15:15:40;25.58;;;17.83;;
44987;SDS011;35735;52.226;21.254;2023-01-28T15:20:47;27.08;;;19.10;;
44987;SDS011;35735;52.226;21.254;2023-01-28T15:25:52;30.85;;;20.27;;
44987;SDS011;35735;52.226;21.254;2023-01-28T15:30:53;26.02;;;18.85;;
44987;SDS011;35735;52.226;21.254;2023-01-28T15:35:54;26.73;;;19.40;;
44987;SDS011;35735;52.226;21.254;2023-01-28T15:41:00;28.05;;;18.40;;
44987;SDS011;35735;52.226;21.254;2023-01-28T15:46:08;25.85;;;17.83;;
44987;SDS011;35735;52.226;21.254;2023-01-28T15:51:18;27.90;;;20.30;;
44987;SDS011;35735;52.226;21.254;2023-01-28T15:56:25;27.77;;;20.27;;
44987;SDS011;35735;52.226;21.254;2023-01-28T16:01:28;27.48;;;19.85;;
44987;SDS011;35735;52.226;21.254;2023-01-28T16:06:38;21.40;;;15.40;;
44987;SDS011;35735;52.226;21.254;2023-01-28T16:11:40;21.60;;;15.35;;
44987;SDS011;35735;52.226;21.254;2023-01-28T16:16:42;20.65;;;14.27;;
44987;SDS011;35735;52.226;21.254;2023-01-28T16:21:47;18.90;;;13.25;;
44987;SDS011;35735;52.226;21.254;2023-01-28T16:32:03;19.37;;;13.88;;
44987;SDS011;35735;52.226;21.254;2023-01-28T16:37:24;10.73;;;8.25;;
44987;SDS011;35735;52.226;21.254;2023-01-28T16:42:25;10.82;;;7.97;;
44987;SDS011;35735;52.226;21.254;2023-01-28T16:47:25;20.05;;;14.02;;
44987;SDS011;35735;52.226;21.254;2023-01-28T16:52:33;13.57;;;9.20;;
44987;SDS011;35735;52.226;21.254;2023-01-28T16:57:34;10.35;;;8.25;;
44987;SDS011;35735;52.226;21.254;2023-01-28T17:02:35;9.75;;;7.10;;
44987;SDS011;35735;52.226;21.254;2023-01-28T17:07:36;5.87;;;4.87;;
44987;SDS011;35735;52.226;21.254;2023-01-28T17:12:39;10.90;;;5.65;;
44987;SDS011;35735;52.226;21.254;2023-01-28T17:17:40;8.70;;;7.20;;
44987;SDS011;35735;52.226;21.254;2023-01-28T17:22:43;12.30;;;8.50;;
44987;SDS011;35735;52.226;21.254;2023-01-28T17:27:45;12.85;;;8.88;;
44987;SDS011;35735;52.226;21.254;2023-01-28T17:32:48;17.52;;;11.30;;
44987;SDS011;35735;52.226;21.254;2023-01-28T17:37:52;21.55;;;13.20;;
44987;SDS011;35735;52.226;21.254;2023-01-28T17:42:53;18.23;;;11.95;;
44987;SDS011;35735;52.226;21.254;2023-01-28T17:47:54;22.35;;;14.00;;
44987;SDS011;35735;52.226;21.254;2023-01-28T17:52:55;17.98;;;12.60;;
44987;SDS011;35735;52.226;21.254;2023-01-28T17:57:56;46.65;;;30.27;;
44987;SDS011;35735;52.226;21.254;2023-01-28T18:02:57;28.50;;;18.75;;
44987;SDS011;35735;52.226;21.254;2023-01-28T18:07:57;25.17;;;16.33;;
44987;SDS011;35735;52.226;21.254;2023-01-28T18:12:58;16.92;;;12.00;;
44987;SDS011;35735;52.226;21.254;2023-01-28T18:17:59;19.25;;;14.15;;
44987;SDS011;35735;52.226;21.254;2023-01-28T18:23:00;22.10;;;15.25;;
44987;SDS011;35735;52.226;21.254;2023-01-28T18:28:06;9.77;;;7.45;;
44987;SDS011;35735;52.226;21.254;2023-01-28T18:33:07;14.30;;;9.55;;
44987;SDS011;35735;52.226;21.254;2023-01-28T18:38:07;19.30;;;14.05;;
44987;SDS011;35735;52.226;21.254;2023-01-28T18:43:08;11.35;;;7.57;;
44987;SDS011;35735;52.226;21.254;2023-01-28T18:48:08;16.92;;;9.88;;
44987;SDS011;35735;52.226;21.254;2023-01-28T18:53:09;38.88;;;27.60;;
44987;SDS011;35735;52.226;21.254;2023-01-28T18:58:10;20.88;;;14.68;;
44987;SDS011;35735;52.226;21.254;2023-01-28T19:03:10;13.85;;;8.80;;
44987;SDS011;35735;52.226;21.254;2023-01-28T19:08:13;14.05;;;8.77;;
44987;SDS011;35735;52.226;21.254;2023-01-28T19:13:14;16.77;;;10.50;;
44987;SDS011;35735;52.226;21.254;2023-01-28T19:18:15;14.52;;;9.65;;
44987;SDS011;35735;52.226;21.254;2023-01-28T19:23:15;15.63;;;9.25;;
44987;SDS011;35735;52.226;21.254;2023-01-28T19:28:18;12.90;;;9.35;;
44987;SDS011;35735;52.226;21.254;2023-01-28T19:33:19;15.15;;;9.30;;
44987;SDS011;35735;52.226;21.254;2023-01-28T19:38:23;12.73;;;9.48;;
44987;SDS011;35735;52.226;21.254;2023-01-28T19:43:25;13.27;;;8.27;;
44987;SDS011;35735;52.226;21.254;2023-01-28T19:48:26;11.75;;;8.75;;
44987;SDS011;35735;52.226;21.254;2023-01-28T19:53:27;9.77;;;7.10;;
44987;SDS011;35735;52.226;21.254;2023-01-28T19:58:31;10.13;;;6.93;;
44987;SDS011;35735;52.226;21.254;2023-01-28T20:03:33;17.37;;;9.40;;
44987;SDS011;35735;52.226;21.254;2023-01-28T20:08:35;14.30;;;9.50;;
44987;SDS011;35735;52.226;21.254;2023-01-28T20:13:36;12.50;;;9.02;;
44987;SDS011;35735;52.226;21.254;2023-01-28T20:18:38;14.98;;;11.10;;
44987;SDS011;35735;52.226;21.254;2023-01-28T20:23:38;40.47;;;25.10;;
44987;SDS011;35735;52.226;21.254;2023-01-28T20:28:39;19.42;;;13.18;;
44987;SDS011;35735;52.226;21.254;2023-01-28T20:33:40;20.85;;;10.77;;
44987;SDS011;35735;52.226;21.254;2023-01-28T20:38:42;14.18;;;8.77;;
44987;SDS011;35735;52.226;21.254;2023-01-28T20:43:45;15.52;;;9.20;;
44987;SDS011;35735;52.226;21.254;2023-01-28T20:48:47;14.25;;;8.65;;
44987;SDS011;35735;52.226;21.254;2023-01-28T20:53:51;12.07;;;8.45;;
44987;SDS011;35735;52.226;21.254;2023-01-28T20:58:54;13.20;;;7.90;;
44987;SDS011;35735;52.226;21.254;2023-01-28T21:03:57;13.90;;;8.23;;
44987;SDS011;35735;52.226;21.254;2023-01-28T21:08:58;13.68;;;8.35;;
44987;SDS011;35735;52.226;21.254;2023-01-28T21:14:00;15.35;;;8.60;;
44987;SDS011;35735;52.226;21.254;2023-01-28T21:19:01;16.75;;;10.32;;
44987;SDS011;35735;52.226;21.254;2023-01-28T21:24:01;16.70;;;10.45;;
44987;SDS011;35735;52.226;21.254;2023-01-28T21:29:04;11.43;;;7.07;;
44987;SDS011;35735;52.226;21.254;2023-01-28T21:34:04;8.63;;;6.70;;
44987;SDS011;35735;52.226;21.254;2023-01-28T21:39:05;9.52;;;6.37;;
44987;SDS011;35735;52.226;21.254;2023-01-28T21:44:11;10.40;;;7.03;;
44987;SDS011;35735;52.226;21.254;2023-01-28T21:49:12;10.85;;;7.37;;
44987;SDS011;35735;52.226;21.254;2023-01-28T21:54:13;12.63;;;7.50;;
44987;SDS011;35735;52.226;21.254;2023-01-28T21:59:17;11.65;;;7.03;;
44987;SDS011;35735;52.226;21.254;2023-01-28T22:04:19;11.90;;;7.40;;
44987;SDS011;35735;52.226;21.254;2023-01-28T22:09:25;11.23;;;7.20;;
44987;SDS011;35735;52.226;21.254;2023-01-28T22:14:27;11.10;;;7.37;;
44987;SDS011;35735;52.226;21.254;2023-01-28T22:19:28;10.77;;;7.80;;
44987;SDS011;35735;52.226;21.254;2023-01-28T22:24:29;11.80;;;7.90;;
44987;SDS011;35735;52.226;21.254;2023-01-28T22:29:30;11.35;;;8.00;;
44987;SDS011;35735;52.226;21.254;2023-01-28T22:34:31;13.30;;;9.25;;
44987;SDS011;35735;52.226;21.254;2023-01-28T22:39:31;14.20;;;9.32;;
44987;SDS011;35735;52.226;21.254;2023-01-28T22:44:34;15.00;;;9.55;;
44987;SDS011;35735;52.226;21.254;2023-01-28T22:49:35;14.32;;;9.43;;
44987;SDS011;35735;52.226;21.254;2023-01-28T22:54:36;15.40;;;9.90;;
44987;SDS011;35735;52.226;21.254;2023-01-28T22:59:37;17.40;;;10.98;;
44987;SDS011;35735;52.226;21.254;2023-01-28T23:04:37;14.98;;;9.82;;
44987;SDS011;35735;52.226;21.254;2023-01-28T23:09:38;11.80;;;8.00;;
44987;SDS011;35735;52.226;21.254;2023-01-28T23:14:39;12.45;;;7.97;;
44987;SDS011;35735;52.226;21.254;2023-01-28T23:19:40;11.80;;;7.28;;
44987;SDS011;35735;52.226;21.254;2023-01-28T23:24:40;10.77;;;7.15;;
44987;SDS011;35735;52.226;21.254;2023-01-28T23:29:41;10.93;;;6.90;;
44987;SDS011;35735;52.226;21.254;2023-01-28T23:34:42;9.80;;;6.82;;
44987;SDS011;35735;52.226;21.254;2023-01-28T23:39:43;14.05;;;8.18;;
44987;SDS011;35735;52.226;21.254;2023-01-28T23:44:44;11.27;;;7.30;;
44987;SDS011;35735;52.226;21.254;2023-01-28T23:49:46;9.15;;;6.82;;
44987;SDS011;35735;52.226;21.254;2023-01-28T23:54:49;7.72;;;5.62;;
44987;SDS011;35735;52.226;21.254;2023-01-28T23:59:50;9.95;;;6.20;;
